Terminal Aerodrome Forecast
Issued by NWS

Home | Current Version | Previous Version | Text Only | Print | Product List | Glossary On
Versions: 1 2 3 4 5 6 7 8 9 10 11 12 13 14 15 16
000
FTUS43 KBIS 222229 AAA
TAFMOT
TAF AMD
KMOT 222229Z 2222/2318 17006KT 3SM BR OVC003
      TEMPO 2300/2302 1SM BR
     FM230200 18006KT 1/4SM FZFG OVC002
     FM230800 25006KT 1/4SM FZFG BKN003
     FM231600 29010KT 5SM BR SCT003=

USA.gov is the U.S. government's official web portal to all federal, state and local government web resources and services.